sensor_id;sensor_type;location;lat;lon;timestamp;noise_LAeq;noise_LA_min;noise_LA_max;noise_LA01;noise_LA95
72736;Laerm;60856;53.238;10.448;2023-09-30T00:01:29;54.15;53.14;55.46;;
72736;Laerm;60856;53.238;10.448;2023-09-30T00:04:03;54.15;52.99;55.32;;
72736;Laerm;60856;53.238;10.448;2023-09-30T00:06:30;54.16;53.11;55.49;;
72736;Laerm;60856;53.238;10.448;2023-09-30T00:08:55;54.15;53.15;55.35;;
72736;Laerm;60856;53.238;10.448;2023-09-30T00:11:21;54.16;53.11;55.40;;
72736;Laerm;60856;53.238;10.448;2023-09-30T00:13:46;54.15;53.07;55.22;;
72736;Laerm;60856;53.238;10.448;2023-09-30T00:16:14;54.15;53.08;55.55;;
72736;Laerm;60856;53.238;10.448;2023-09-30T00:18:39;54.15;52.89;55.31;;
72736;Laerm;60856;53.238;10.448;2023-09-30T00:21:05;54.14;52.86;55.33;;
72736;Laerm;60856;53.238;10.448;2023-09-30T00:23:31;54.15;53.06;55.54;;
72736;Laerm;60856;53.238;10.448;2023-09-30T00:25:56;54.15;52.90;55.45;;
72736;Laerm;60856;53.238;10.448;2023-09-30T00:28:21;54.15;53.07;55.42;;
72736;Laerm;60856;53.238;10.448;2023-09-30T00:30:47;54.15;53.03;55.32;;
72736;Laerm;60856;53.238;10.448;2023-09-30T00:33:13;54.16;53.11;55.40;;
72736;Laerm;60856;53.238;10.448;2023-09-30T00:35:45;54.16;53.07;55.40;;
72736;Laerm;60856;53.238;10.448;2023-09-30T00:38:49;54.17;53.12;55.44;;
72736;Laerm;60856;53.238;10.448;2023-09-30T00:41:14;54.15;53.06;55.31;;
72736;Laerm;60856;53.238;10.448;2023-09-30T00:43:39;54.14;52.86;55.38;;
72736;Laerm;60856;53.238;10.448;2023-09-30T00:46:20;54.13;53.03;55.33;;
72736;Laerm;60856;53.238;10.448;2023-09-30T00:48:50;54.13;52.93;55.43;;
72736;Laerm;60856;53.238;10.448;2023-09-30T00:54:24;54.12;52.99;55.73;;
72736;Laerm;60856;53.238;10.448;2023-09-30T00:56:52;54.11;52.96;55.29;;
72736;Laerm;60856;53.238;10.448;2023-09-30T00:59:17;54.11;53.11;55.30;;
72736;Laerm;60856;53.238;10.448;2023-09-30T01:01:43;54.11;52.91;55.28;;
72736;Laerm;60856;53.238;10.448;2023-09-30T01:04:11;54.11;52.90;55.31;;
72736;Laerm;60856;53.238;10.448;2023-09-30T01:06:37;54.12;52.87;55.28;;
72736;Laerm;60856;53.238;10.448;2023-09-30T01:09:27;54.13;52.94;55.47;;
72736;Laerm;60856;53.238;10.448;2023-09-30T01:11:53;54.12;52.98;55.49;;
72736;Laerm;60856;53.238;10.448;2023-09-30T01:14:28;54.10;53.03;55.27;;
72736;Laerm;60856;53.238;10.448;2023-09-30T01:16:54;54.10;53.01;55.45;;
72736;Laerm;60856;53.238;10.448;2023-09-30T01:19:20;54.10;52.91;55.31;;
72736;Laerm;60856;53.238;10.448;2023-09-30T01:21:45;54.10;52.98;55.64;;
72736;Laerm;60856;53.238;10.448;2023-09-30T01:24:29;54.12;53.11;55.35;;
72736;Laerm;60856;53.238;10.448;2023-09-30T01:36:47;54.15;53.13;55.41;;
72736;Laerm;60856;53.238;10.448;2023-09-30T01:45:54;54.14;53.10;55.42;;
72736;Laerm;60856;53.238;10.448;2023-09-30T01:58:08;54.14;53.10;55.33;;
72736;Laerm;60856;53.238;10.448;2023-09-30T02:00:36;54.13;53.03;55.29;;
72736;Laerm;60856;53.238;10.448;2023-09-30T02:03:02;54.11;53.12;55.24;;
72736;Laerm;60856;53.238;10.448;2023-09-30T02:05:28;54.10;52.96;55.22;;
72736;Laerm;60856;53.238;10.448;2023-09-30T02:07:55;54.09;52.99;55.32;;
72736;Laerm;60856;53.238;10.448;2023-09-30T02:10:20;54.10;53.01;55.26;;
72736;Laerm;60856;53.238;10.448;2023-09-30T02:16:27;54.09;52.99;55.26;;
72736;Laerm;60856;53.238;10.448;2023-09-30T02:22:37;54.07;53.04;55.25;;
72736;Laerm;60856;53.238;10.448;2023-09-30T02:25:04;54.07;53.00;55.34;;
72736;Laerm;60856;53.238;10.448;2023-09-30T02:27:32;54.06;52.92;55.17;;
72736;Laerm;60856;53.238;10.448;2023-09-30T02:29:57;54.07;53.05;55.36;;
72736;Laerm;60856;53.238;10.448;2023-09-30T02:32:23;54.07;53.07;55.21;;
72736;Laerm;60856;53.238;10.448;2023-09-30T02:35:05;54.07;53.06;55.25;;
72736;Laerm;60856;53.238;10.448;2023-09-30T02:38:00;54.07;52.93;55.28;;
72736;Laerm;60856;53.238;10.448;2023-09-30T02:40:40;54.07;53.09;55.22;;
72736;Laerm;60856;53.238;10.448;2023-09-30T02:43:22;54.07;53.10;55.30;;
72736;Laerm;60856;53.238;10.448;2023-09-30T02:55:10;54.05;52.72;55.17;;
72736;Laerm;60856;53.238;10.448;2023-09-30T02:57:39;54.05;53.06;55.10;;
72736;Laerm;60856;53.238;10.448;2023-09-30T03:00:33;54.05;53.00;55.38;;
72736;Laerm;60856;53.238;10.448;2023-09-30T03:03:00;54.04;52.99;55.23;;
72736;Laerm;60856;53.238;10.448;2023-09-30T03:05:30;54.04;52.90;55.20;;
72736;Laerm;60856;53.238;10.448;2023-09-30T03:08:04;54.03;52.97;55.28;;
72736;Laerm;60856;53.238;10.448;2023-09-30T03:10:56;54.04;52.88;55.30;;
72736;Laerm;60856;53.238;10.448;2023-09-30T03:16:28;54.03;52.58;55.08;;
72736;Laerm;60856;53.238;10.448;2023-09-30T03:18:59;54.04;52.90;55.21;;
72736;Laerm;60856;53.238;10.448;2023-09-30T03:21:34;54.04;52.79;55.13;;
72736;Laerm;60856;53.238;10.448;2023-09-30T03:24:04;54.03;52.92;55.22;;
72736;Laerm;60856;53.238;10.448;2023-09-30T03:26:33;54.05;53.02;55.24;;
72736;Laerm;60856;53.238;10.448;2023-09-30T03:29:01;54.02;52.78;55.05;;
72736;Laerm;60856;53.238;10.448;2023-09-30T03:31:30;54.03;53.05;55.09;;
72736;Laerm;60856;53.238;10.448;2023-09-30T03:33:56;54.01;53.00;55.11;;
72736;Laerm;60856;53.238;10.448;2023-09-30T03:36:22;54.02;53.05;55.32;;
72736;Laerm;60856;53.238;10.448;2023-09-30T03:38:51;54.03;52.93;55.24;;
72736;Laerm;60856;53.238;10.448;2023-09-30T03:41:19;54.03;52.92;55.06;;
72736;Laerm;60856;53.238;10.448;2023-09-30T03:43:48;54.02;52.84;55.20;;
72736;Laerm;60856;53.238;10.448;2023-09-30T03:46:14;54.02;52.90;55.12;;
72736;Laerm;60856;53.238;10.448;2023-09-30T03:48:46;54.01;52.99;55.28;;
72736;Laerm;60856;53.238;10.448;2023-09-30T03:51:14;54.02;53.04;55.21;;
72736;Laerm;60856;53.238;10.448;2023-09-30T03:53:44;54.01;52.93;55.22;;
72736;Laerm;60856;53.238;10.448;2023-09-30T03:56:14;54.01;53.10;55.27;;
72736;Laerm;60856;53.238;10.448;2023-09-30T03:58:41;54.01;52.96;55.21;;
72736;Laerm;60856;53.238;10.448;2023-09-30T04:04:16;54.00;52.94;55.10;;
72736;Laerm;60856;53.238;10.448;2023-09-30T04:06:41;54.01;52.90;55.48;;
72736;Laerm;60856;53.238;10.448;2023-09-30T04:09:07;54.01;52.84;55.28;;
72736;Laerm;60856;53.238;10.448;2023-09-30T04:11:37;54.01;52.88;55.32;;
72736;Laerm;60856;53.238;10.448;2023-09-30T04:14:03;54.02;53.01;55.15;;
72736;Laerm;60856;53.238;10.448;2023-09-30T04:16:29;54.01;52.91;55.15;;
72736;Laerm;60856;53.238;10.448;2023-09-30T04:18:55;54.02;52.76;55.33;;
72736;Laerm;60856;53.238;10.448;2023-09-30T04:21:27;54.02;52.99;55.22;;
72736;Laerm;60856;53.238;10.448;2023-09-30T04:23:59;54.03;53.04;55.25;;
72736;Laerm;60856;53.238;10.448;2023-09-30T04:26:25;54.02;52.92;55.26;;
72736;Laerm;60856;53.238;10.448;2023-09-30T04:28:55;54.01;52.81;55.48;;
72736;Laerm;60856;53.238;10.448;2023-09-30T04:31:20;54.03;52.98;55.39;;
72736;Laerm;60856;53.238;10.448;2023-09-30T04:34:06;54.02;53.02;55.37;;
72736;Laerm;60856;53.238;10.448;2023-09-30T04:36:31;54.02;52.78;55.33;;
72736;Laerm;60856;53.238;10.448;2023-09-30T04:39:15;54.02;52.87;55.25;;
72736;Laerm;60856;53.238;10.448;2023-09-30T04:41:41;54.01;52.75;55.06;;
72736;Laerm;60856;53.238;10.448;2023-09-30T04:44:09;54.01;52.97;55.17;;
72736;Laerm;60856;53.238;10.448;2023-09-30T04:46:35;54.02;53.00;55.39;;
72736;Laerm;60856;53.238;10.448;2023-09-30T04:49:00;54.01;52.87;55.28;;
72736;Laerm;60856;53.238;10.448;2023-09-30T04:51:27;54.03;52.92;55.37;;
72736;Laerm;60856;53.238;10.448;2023-09-30T04:53:52;54.03;52.96;55.38;;
72736;Laerm;60856;53.238;10.448;2023-09-30T04:56:21;54.03;52.94;55.26;;
72736;Laerm;60856;53.238;10.448;2023-09-30T04:58:50;54.04;53.01;55.23;;
72736;Laerm;60856;53.238;10.448;2023-09-30T05:01:15;54.03;53.00;55.32;;
72736;Laerm;60856;53.238;10.448;2023-09-30T05:03:40;54.02;53.09;55.39;;
72736;Laerm;60856;53.238;10.448;2023-09-30T05:06:05;54.06;52.84;55.16;;
72736;Laerm;60856;53.238;10.448;2023-09-30T05:08:32;54.12;53.07;55.31;;
72736;Laerm;60856;53.238;10.448;2023-09-30T05:10:58;54.14;52.90;55.25;;
72736;Laerm;60856;53.238;10.448;2023-09-30T05:13:23;54.15;53.06;55.31;;
72736;Laerm;60856;53.238;10.448;2023-09-30T05:15:49;54.15;53.06;55.30;;
72736;Laerm;60856;53.238;10.448;2023-09-30T05:23:24;54.14;53.08;55.39;;
72736;Laerm;60856;53.238;10.448;2023-09-30T05:25:50;54.19;53.16;55.35;;
72736;Laerm;60856;53.238;10.448;2023-09-30T05:28:16;54.21;53.21;55.52;;
72736;Laerm;60856;53.238;10.448;2023-09-30T05:30:41;54.26;53.27;55.62;;
72736;Laerm;60856;53.238;10.448;2023-09-30T05:33:06;54.26;53.21;55.52;;
72736;Laerm;60856;53.238;10.448;2023-09-30T05:35:32;54.22;53.11;55.48;;
72736;Laerm;60856;53.238;10.448;2023-09-30T05:37:57;54.18;53.06;55.42;;
72736;Laerm;60856;53.238;10.448;2023-09-30T05:40:22;54.17;53.10;55.59;;
72736;Laerm;60856;53.238;10.448;2023-09-30T05:42:50;54.19;53.15;55.43;;
72736;Laerm;60856;53.238;10.448;2023-09-30T05:45:16;54.21;53.18;55.40;;
72736;Laerm;60856;53.238;10.448;2023-09-30T05:47:41;54.18;53.23;55.37;;
72736;Laerm;60856;53.238;10.448;2023-09-30T05:50:06;54.17;53.14;55.48;;
72736;Laerm;60856;53.238;10.448;2023-09-30T05:52:32;54.16;53.09;55.51;;
72736;Laerm;60856;53.238;10.448;2023-09-30T05:54:58;54.20;53.14;55.39;;
72736;Laerm;60856;53.238;10.448;2023-09-30T05:57:25;54.24;53.08;55.26;;
72736;Laerm;60856;53.238;10.448;2023-09-30T05:59:51;54.26;53.22;55.50;;
72736;Laerm;60856;53.238;10.448;2023-09-30T06:02:16;54.32;52.95;55.38;;
72736;Laerm;60856;53.238;10.448;2023-09-30T06:04:41;54.44;53.44;55.64;;
72736;Laerm;60856;53.238;10.448;2023-09-30T06:07:07;54.45;53.31;55.56;;
72736;Laerm;60856;53.238;10.448;2023-09-30T06:09:33;54.48;53.42;55.63;;
72736;Laerm;60856;53.238;10.448;2023-09-30T06:11:58;54.45;53.51;55.56;;
72736;Laerm;60856;53.238;10.448;2023-09-30T06:14:24;54.40;53.40;55.41;;
72736;Laerm;60856;53.238;10.448;2023-09-30T06:16:52;54.38;53.26;55.54;;
72736;Laerm;60856;53.238;10.448;2023-09-30T06:19:18;54.34;53.22;55.94;;
72736;Laerm;60856;53.238;10.448;2023-09-30T06:21:43;54.34;53.31;55.29;;
72736;Laerm;60856;53.238;10.448;2023-09-30T06:24:08;54.37;53.19;55.58;;
72736;Laerm;60856;53.238;10.448;2023-09-30T06:26:33;54.41;53.35;55.53;;
72736;Laerm;60856;53.238;10.448;2023-09-30T06:28:59;54.48;53.29;55.75;;
72736;Laerm;60856;53.238;10.448;2023-09-30T06:31:25;54.50;53.40;55.61;;
72736;Laerm;60856;53.238;10.448;2023-09-30T06:33:51;54.55;53.52;55.71;;
72736;Laerm;60856;53.238;10.448;2023-09-30T06:36:17;54.61;53.64;55.84;;
72736;Laerm;60856;53.238;10.448;2023-09-30T06:38:45;54.68;53.54;55.72;;
72736;Laerm;60856;53.238;10.448;2023-09-30T06:41:16;54.76;53.81;55.91;;
72736;Laerm;60856;53.238;10.448;2023-09-30T06:43:42;54.81;53.61;56.02;;
72736;Laerm;60856;53.238;10.448;2023-09-30T06:46:08;54.88;53.75;55.93;;
72736;Laerm;60856;53.238;10.448;2023-09-30T06:48:36;54.93;53.96;55.95;;
72736;Laerm;60856;53.238;10.448;2023-09-30T06:51:02;54.94;53.87;55.96;;
72736;Laerm;60856;53.238;10.448;2023-09-30T06:53:27;55.13;54.07;56.20;;
72736;Laerm;60856;53.238;10.448;2023-09-30T06:55:53;55.39;54.37;56.38;;
72736;Laerm;60856;53.238;10.448;2023-09-30T06:58:18;55.48;54.48;56.65;;
72736;Laerm;60856;53.238;10.448;2023-09-30T07:00:55;55.66;54.71;56.66;;
72736;Laerm;60856;53.238;10.448;2023-09-30T07:03:20;55.67;54.52;56.69;;
72736;Laerm;60856;53.238;10.448;2023-09-30T07:05:46;55.66;54.49;56.67;;
72736;Laerm;60856;53.238;10.448;2023-09-30T07:08:14;55.73;54.69;56.71;;
72736;Laerm;60856;53.238;10.448;2023-09-30T07:10:40;55.81;54.70;57.03;;
72736;Laerm;60856;53.238;10.448;2023-09-30T07:13:05;55.84;54.86;56.89;;
72736;Laerm;60856;53.238;10.448;2023-09-30T07:15:31;55.87;54.74;56.83;;
72736;Laerm;60856;53.238;10.448;2023-09-30T07:17:57;55.88;54.84;56.76;;
72736;Laerm;60856;53.238;10.448;2023-09-30T07:20:22;55.92;54.88;56.93;;
72736;Laerm;60856;53.238;10.448;2023-09-30T07:22:48;55.97;54.81;56.95;;
72736;Laerm;60856;53.238;10.448;2023-09-30T07:25:13;56.00;55.03;56.99;;
72736;Laerm;60856;53.238;10.448;2023-09-30T07:27:41;55.99;54.92;57.01;;
72736;Laerm;60856;53.238;10.448;2023-09-30T07:30:06;55.99;54.70;57.42;;
72736;Laerm;60856;53.238;10.448;2023-09-30T07:32:32;56.02;54.95;57.06;;
72736;Laerm;60856;53.238;10.448;2023-09-30T07:34:57;56.01;54.98;57.06;;
72736;Laerm;60856;53.238;10.448;2023-09-30T07:37:22;56.02;54.97;56.97;;
72736;Laerm;60856;53.238;10.448;2023-09-30T07:39:47;56.02;55.07;57.05;;
72736;Laerm;60856;53.238;10.448;2023-09-30T07:42:13;56.05;55.12;57.27;;
72736;Laerm;60856;53.238;10.448;2023-09-30T07:44:38;56.07;55.07;57.07;;
72736;Laerm;60856;53.238;10.448;2023-09-30T07:47:04;56.06;54.95;57.16;;
72736;Laerm;60856;53.238;10.448;2023-09-30T07:49:31;56.06;54.84;57.06;;
72736;Laerm;60856;53.238;10.448;2023-09-30T07:51:57;56.05;55.09;57.04;;
72736;Laerm;60856;53.238;10.448;2023-09-30T07:54:22;56.07;55.07;57.40;;
72736;Laerm;60856;53.238;10.448;2023-09-30T07:56:48;56.06;55.01;57.29;;
72736;Laerm;60856;53.238;10.448;2023-09-30T07:59:14;56.06;55.13;57.21;;
72736;Laerm;60856;53.238;10.448;2023-09-30T08:01:40;56.05;54.91;57.10;;
72736;Laerm;60856;53.238;10.448;2023-09-30T08:04:05;56.07;55.03;57.08;;
72736;Laerm;60856;53.238;10.448;2023-09-30T08:06:31;56.07;55.03;57.05;;
72736;Laerm;60856;53.238;10.448;2023-09-30T08:08:56;56.09;54.88;57.05;;
72736;Laerm;60856;53.238;10.448;2023-09-30T08:11:21;56.11;55.13;57.08;;
72736;Laerm;60856;53.238;10.448;2023-09-30T08:13:46;56.13;55.20;57.19;;
72736;Laerm;60856;53.238;10.448;2023-09-30T08:16:12;56.10;55.12;57.11;;
72736;Laerm;60856;53.238;10.448;2023-09-30T08:18:38;56.12;55.05;57.08;;
72736;Laerm;60856;53.238;10.448;2023-09-30T08:21:03;56.14;55.16;56.95;;
72736;Laerm;60856;53.238;10.448;2023-09-30T08:23:29;56.16;55.23;57.29;;
72736;Laerm;60856;53.238;10.448;2023-09-30T08:25:57;56.13;54.98;57.08;;
72736;Laerm;60856;53.238;10.448;2023-09-30T08:28:23;56.12;55.12;57.02;;
72736;Laerm;60856;53.238;10.448;2023-09-30T08:30:48;56.12;55.06;57.12;;
72736;Laerm;60856;53.238;10.448;2023-09-30T08:33:14;56.12;55.03;57.07;;
72736;Laerm;60856;53.238;10.448;2023-09-30T08:35:39;56.11;55.09;57.21;;
72736;Laerm;60856;53.238;10.448;2023-09-30T08:38:04;56.11;54.92;57.13;;
72736;Laerm;60856;53.238;10.448;2023-09-30T08:40:30;56.11;55.11;57.03;;
72736;Laerm;60856;53.238;10.448;2023-09-30T08:42:55;56.12;55.15;57.18;;
72736;Laerm;60856;53.238;10.448;2023-09-30T08:45:21;56.12;55.09;57.14;;
72736;Laerm;60856;53.238;10.448;2023-09-30T08:47:46;56.14;55.03;57.13;;
72736;Laerm;60856;53.238;10.448;2023-09-30T08:50:12;56.14;55.09;57.03;;
72736;Laerm;60856;53.238;10.448;2023-09-30T08:52:38;56.13;55.18;57.20;;
72736;Laerm;60856;53.238;10.448;2023-09-30T08:55:05;56.14;54.92;57.14;;
72736;Laerm;60856;53.238;10.448;2023-09-30T08:57:32;56.12;55.21;57.04;;
72736;Laerm;60856;53.238;10.448;2023-09-30T08:59:57;56.13;55.06;57.23;;
72736;Laerm;60856;53.238;10.448;2023-09-30T09:02:23;56.13;55.14;57.24;;
72736;Laerm;60856;53.238;10.448;2023-09-30T09:04:48;56.13;55.06;57.20;;
72736;Laerm;60856;53.238;10.448;2023-09-30T09:07:14;56.14;55.05;57.16;;
72736;Laerm;60856;53.238;10.448;2023-09-30T09:09:39;56.16;55.25;57.17;;
72736;Laerm;60856;53.238;10.448;2023-09-30T09:12:05;56.18;55.15;57.18;;
72736;Laerm;60856;53.238;10.448;2023-09-30T09:14:40;56.17;54.97;57.24;;
72736;Laerm;60856;53.238;10.448;2023-09-30T09:17:10;56.16;55.09;57.13;;
72736;Laerm;60856;53.238;10.448;2023-09-30T09:19:35;56.15;55.15;57.18;;
72736;Laerm;60856;53.238;10.448;2023-09-30T09:22:02;56.15;55.14;57.20;;
72736;Laerm;60856;53.238;10.448;2023-09-30T09:24:33;56.16;55.11;57.27;;
72736;Laerm;60856;53.238;10.448;2023-09-30T09:29:31;56.15;54.83;57.13;;
72736;Laerm;60856;53.238;10.448;2023-09-30T09:32:06;56.16;55.15;57.16;;
72736;Laerm;60856;53.238;10.448;2023-09-30T09:34:32;56.15;55.33;57.05;;
72736;Laerm;60856;53.238;10.448;2023-09-30T09:36:57;56.15;54.93;57.25;;
72736;Laerm;60856;53.238;10.448;2023-09-30T09:39:29;56.16;55.15;57.13;;
72736;Laerm;60856;53.238;10.448;2023-09-30T09:41:55;56.15;55.09;57.31;;
72736;Laerm;60856;53.238;10.448;2023-09-30T09:44:23;56.13;54.97;57.27;;
72736;Laerm;60856;53.238;10.448;2023-09-30T09:46:49;56.11;55.05;57.15;;
72736;Laerm;60856;53.238;10.448;2023-09-30T09:49:18;56.13;55.01;57.10;;
72736;Laerm;60856;53.238;10.448;2023-09-30T09:51:44;56.15;55.05;57.30;;
72736;Laerm;60856;53.238;10.448;2023-09-30T09:54:10;56.13;54.98;57.16;;
72736;Laerm;60856;53.238;10.448;2023-09-30T09:56:36;56.14;54.96;57.16;;
72736;Laerm;60856;53.238;10.448;2023-09-30T09:59:04;56.17;55.17;57.22;;
72736;Laerm;60856;53.238;10.448;2023-09-30T10:01:30;56.16;55.00;57.24;;
72736;Laerm;60856;53.238;10.448;2023-09-30T10:03:56;56.16;55.17;57.18;;
72736;Laerm;60856;53.238;10.448;2023-09-30T10:06:22;56.15;55.15;57.23;;
72736;Laerm;60856;53.238;10.448;2023-09-30T10:08:48;56.20;55.24;57.30;;
72736;Laerm;60856;53.238;10.448;2023-09-30T10:11:18;56.14;54.91;57.38;;
72736;Laerm;60856;53.238;10.448;2023-09-30T10:13:53;56.22;55.09;57.19;;
72736;Laerm;60856;53.238;10.448;2023-09-30T10:19:10;56.21;55.05;57.22;;
72736;Laerm;60856;53.238;10.448;2023-09-30T10:21:36;56.22;55.11;57.26;;
72736;Laerm;60856;53.238;10.448;2023-09-30T10:26:45;56.05;54.82;57.19;;
72736;Laerm;60856;53.238;10.448;2023-09-30T10:29:11;56.04;54.97;57.14;;
72736;Laerm;60856;53.238;10.448;2023-09-30T10:31:49;55.84;54.68;56.91;;
72736;Laerm;60856;53.238;10.448;2023-09-30T10:34:18;56.06;54.95;57.24;;
72736;Laerm;60856;53.238;10.448;2023-09-30T10:36:44;55.94;54.83;57.12;;
72736;Laerm;60856;53.238;10.448;2023-09-30T10:39:12;55.84;54.83;56.82;;
72736;Laerm;60856;53.238;10.448;2023-09-30T10:46:59;56.09;54.99;57.21;;
72736;Laerm;60856;53.238;10.448;2023-09-30T10:51:50;56.00;54.80;57.00;;
72736;Laerm;60856;53.238;10.448;2023-09-30T10:54:21;55.96;54.88;56.96;;
72736;Laerm;60856;53.238;10.448;2023-09-30T10:56:46;55.99;54.92;57.05;;
72736;Laerm;60856;53.238;10.448;2023-09-30T10:59:17;55.80;54.72;56.88;;
72736;Laerm;60856;53.238;10.448;2023-09-30T11:01:43;55.78;54.63;57.38;;
72736;Laerm;60856;53.238;10.448;2023-09-30T11:04:08;55.78;54.72;56.90;;
72736;Laerm;60856;53.238;10.448;2023-09-30T11:06:34;55.97;54.75;57.11;;
72736;Laerm;60856;53.238;10.448;2023-09-30T11:09:00;55.83;54.53;56.88;;
72736;Laerm;60856;53.238;10.448;2023-09-30T11:11:35;55.90;54.88;57.00;;
72736;Laerm;60856;53.238;10.448;2023-09-30T11:14:01;55.90;54.94;56.95;;
72736;Laerm;60856;53.238;10.448;2023-09-30T11:16:26;55.93;54.74;56.88;;
72736;Laerm;60856;53.238;10.448;2023-09-30T11:18:55;55.96;55.07;57.28;;
72736;Laerm;60856;53.238;10.448;2023-09-30T11:21:22;55.90;54.78;56.95;;
72736;Laerm;60856;53.238;10.448;2023-09-30T11:23:47;55.95;54.89;56.95;;
72736;Laerm;60856;53.238;10.448;2023-09-30T11:26:12;55.95;54.99;57.23;;
72736;Laerm;60856;53.238;10.448;2023-09-30T11:28:39;55.89;54.73;56.99;;
72736;Laerm;60856;53.238;10.448;2023-09-30T11:31:07;55.86;54.79;56.87;;
72736;Laerm;60856;53.238;10.448;2023-09-30T11:33:32;55.75;54.66;56.93;;
72736;Laerm;60856;53.238;10.448;2023-09-30T11:36:00;55.72;54.58;56.79;;
72736;Laerm;60856;53.238;10.448;2023-09-30T11:38:26;55.52;54.49;56.72;;
72736;Laerm;60856;53.238;10.448;2023-09-30T11:41:04;55.64;54.45;56.78;;
72736;Laerm;60856;53.238;10.448;2023-09-30T11:43:31;55.73;54.63;56.71;;
72736;Laerm;60856;53.238;10.448;2023-09-30T11:46:06;55.64;54.38;56.67;;
72736;Laerm;60856;53.238;10.448;2023-09-30T11:48:33;55.60;54.62;56.65;;
72736;Laerm;60856;53.238;10.448;2023-09-30T11:50:59;55.56;54.36;56.73;;
72736;Laerm;60856;53.238;10.448;2023-09-30T11:53:27;55.66;54.49;56.98;;
72736;Laerm;60856;53.238;10.448;2023-09-30T11:55:53;55.86;54.82;56.83;;
72736;Laerm;60856;53.238;10.448;2023-09-30T11:58:21;55.93;54.96;56.86;;
72736;Laerm;60856;53.238;10.448;2023-09-30T12:00:47;55.93;54.92;56.88;;
72736;Laerm;60856;53.238;10.448;2023-09-30T12:03:15;56.02;54.99;56.93;;
72736;Laerm;60856;53.238;10.448;2023-09-30T12:05:43;56.00;54.99;56.92;;
72736;Laerm;60856;53.238;10.448;2023-09-30T12:08:10;55.96;55.03;57.24;;
72736;Laerm;60856;53.238;10.448;2023-09-30T12:10:35;55.95;54.77;57.15;;
72736;Laerm;60856;53.238;10.448;2023-09-30T12:13:01;55.92;54.98;57.00;;
72736;Laerm;60856;53.238;10.448;2023-09-30T12:15:26;55.99;55.00;56.96;;
72736;Laerm;60856;53.238;10.448;2023-09-30T12:17:54;55.94;54.84;57.20;;
72736;Laerm;60856;53.238;10.448;2023-09-30T12:20:19;55.91;54.95;56.88;;
72736;Laerm;60856;53.238;10.448;2023-09-30T12:22:45;55.86;54.69;56.85;;
72736;Laerm;60856;53.238;10.448;2023-09-30T12:25:10;55.95;54.86;56.88;;
72736;Laerm;60856;53.238;10.448;2023-09-30T12:27:36;55.93;54.88;56.98;;
72736;Laerm;60856;53.238;10.448;2023-09-30T12:30:01;55.96;54.93;57.00;;
72736;Laerm;60856;53.238;10.448;2023-09-30T12:32:28;55.95;54.90;56.90;;
72736;Laerm;60856;53.238;10.448;2023-09-30T12:34:53;55.90;54.96;56.90;;
72736;Laerm;60856;53.238;10.448;2023-09-30T12:37:18;55.87;54.72;56.90;;
72736;Laerm;60856;53.238;10.448;2023-09-30T12:39:43;55.99;55.03;56.98;;
72736;Laerm;60856;53.238;10.448;2023-09-30T12:42:10;56.07;55.16;57.04;;
72736;Laerm;60856;53.238;10.448;2023-09-30T12:44:37;56.05;55.13;57.02;;
72736;Laerm;60856;53.238;10.448;2023-09-30T12:47:02;56.03;55.09;56.99;;
72736;Laerm;60856;53.238;10.448;2023-09-30T12:49:30;56.01;54.93;57.02;;
72736;Laerm;60856;53.238;10.448;2023-09-30T12:51:55;56.06;54.83;57.15;;
72736;Laerm;60856;53.238;10.448;2023-09-30T12:54:21;56.01;54.93;56.97;;
72736;Laerm;60856;53.238;10.448;2023-09-30T12:56:46;55.91;54.83;57.01;;
72736;Laerm;60856;53.238;10.448;2023-09-30T12:59:12;55.87;54.88;56.88;;
72736;Laerm;60856;53.238;10.448;2023-09-30T13:01:37;55.80;54.64;56.78;;
72736;Laerm;60856;53.238;10.448;2023-09-30T13:04:04;55.77;54.74;56.80;;
72736;Laerm;60856;53.238;10.448;2023-09-30T13:06:33;55.70;54.69;56.68;;
72736;Laerm;60856;53.238;10.448;2023-09-30T13:09:00;55.67;54.63;56.66;;
72736;Laerm;60856;53.238;10.448;2023-09-30T13:11:25;55.57;54.68;56.52;;
72736;Laerm;60856;53.238;10.448;2023-09-30T13:13:51;55.56;54.54;56.59;;
72736;Laerm;60856;53.238;10.448;2023-09-30T13:16:17;55.53;54.54;56.50;;
72736;Laerm;60856;53.238;10.448;2023-09-30T13:18:42;55.53;54.52;56.50;;
72736;Laerm;60856;53.238;10.448;2023-09-30T13:21:07;55.59;54.55;56.66;;
72736;Laerm;60856;53.238;10.448;2023-09-30T13:23:33;55.60;54.62;56.73;;
72736;Laerm;60856;53.238;10.448;2023-09-30T13:25:58;55.58;54.53;56.82;;
72736;Laerm;60856;53.238;10.448;2023-09-30T13:28:23;55.57;54.64;56.77;;
72736;Laerm;60856;53.238;10.448;2023-09-30T13:30:48;55.56;54.46;56.50;;
72736;Laerm;60856;53.238;10.448;2023-09-30T13:33:14;55.56;54.48;56.73;;
72736;Laerm;60856;53.238;10.448;2023-09-30T13:35:39;55.57;54.62;56.53;;
72736;Laerm;60856;53.238;10.448;2023-09-30T13:38:04;55.62;54.54;56.61;;
72736;Laerm;60856;53.238;10.448;2023-09-30T13:40:30;55.64;54.65;56.71;;
72736;Laerm;60856;53.238;10.448;2023-09-30T13:42:55;55.53;54.40;56.51;;
72736;Laerm;60856;53.238;10.448;2023-09-30T13:45:22;55.51;54.49;56.57;;
72736;Laerm;60856;53.238;10.448;2023-09-30T13:47:47;55.49;54.51;56.66;;
72736;Laerm;60856;53.238;10.448;2023-09-30T13:50:12;55.45;54.48;56.54;;
72736;Laerm;60856;53.238;10.448;2023-09-30T13:52:37;55.44;54.38;56.43;;
72736;Laerm;60856;53.238;10.448;2023-09-30T13:55:03;55.40;54.39;56.49;;
72736;Laerm;60856;53.238;10.448;2023-09-30T13:57:29;55.41;54.43;56.34;;
72736;Laerm;60856;53.238;10.448;2023-09-30T13:59:57;55.39;54.40;56.40;;
72736;Laerm;60856;53.238;10.448;2023-09-30T14:02:22;55.38;54.42;56.64;;
72736;Laerm;60856;53.238;10.448;2023-09-30T14:04:48;55.36;54.28;56.42;;
72736;Laerm;60856;53.238;10.448;2023-09-30T14:07:13;55.35;54.23;56.47;;
72736;Laerm;60856;53.238;10.448;2023-09-30T14:09:38;55.36;54.31;56.61;;
72736;Laerm;60856;53.238;10.448;2023-09-30T14:12:03;55.32;54.36;56.24;;
72736;Laerm;60856;53.238;10.448;2023-09-30T14:14:30;55.31;54.07;56.52;;
72736;Laerm;60856;53.238;10.448;2023-09-30T14:16:55;55.27;54.20;56.32;;
72736;Laerm;60856;53.238;10.448;2023-09-30T14:19:21;55.24;54.05;56.21;;
72736;Laerm;60856;53.238;10.448;2023-09-30T14:21:46;55.23;54.14;56.37;;
72736;Laerm;60856;53.238;10.448;2023-09-30T14:24:11;55.20;54.22;56.31;;
72736;Laerm;60856;53.238;10.448;2023-09-30T14:26:37;55.22;54.22;56.18;;
72736;Laerm;60856;53.238;10.448;2023-09-30T14:29:02;55.21;53.99;56.27;;
72736;Laerm;60856;53.238;10.448;2023-09-30T14:31:28;55.20;54.14;56.42;;
72736;Laerm;60856;53.238;10.448;2023-09-30T14:33:53;55.21;54.12;56.24;;
72736;Laerm;60856;53.238;10.448;2023-09-30T14:36:19;55.19;54.07;56.18;;
72736;Laerm;60856;53.238;10.448;2023-09-30T14:38:45;55.17;54.05;56.30;;
72736;Laerm;60856;53.238;10.448;2023-09-30T14:41:10;55.15;54.11;56.10;;
72736;Laerm;60856;53.238;10.448;2023-09-30T14:43:35;55.16;54.15;56.23;;
72736;Laerm;60856;53.238;10.448;2023-09-30T14:46:01;55.16;54.04;56.30;;